createdAt,value
2019-02-21T00:02:10.106Z,80.10
2019-02-21T00:04:38.699Z,78.80
2019-02-21T00:07:07.256Z,79.80
2019-02-21T00:09:35.834Z,80.10
2019-02-21T00:12:04.318Z,79.40
2019-02-21T00:14:32.982Z,79.70
2019-02-21T00:17:01.476Z,78.80
2019-02-21T00:19:30.027Z,79.10
2019-02-21T00:21:58.606Z,79.20
2019-02-21T00:24:27.202Z,78.60
2019-02-21T00:26:55.778Z,79.50
2019-02-21T00:29:24.334Z,78.60
2019-02-21T00:31:52.994Z,79.20
2019-02-21T00:34:21.559Z,78.00
2019-02-21T00:36:50.151Z,78.00
2019-02-21T00:39:18.706Z,78.00
2019-02-21T00:41:47.290Z,77.70
2019-02-21T00:44:16.140Z,78.80
2019-02-21T00:46:44.658Z,78.10
2019-02-21T00:49:13.211Z,78.80
2019-02-21T00:51:41.792Z,79.80
2019-02-21T00:54:10.346Z,79.40
2019-02-21T00:56:38.924Z,79.40
2019-02-21T00:59:07.410Z,79.30
2019-02-21T01:01:35.927Z,80.10
2019-02-21T01:04:04.492Z,79.90
2019-02-21T01:06:33.114Z,80.30
2019-02-21T01:09:01.683Z,80.50
2019-02-21T01:11:30.199Z,79.10
2019-02-21T01:13:58.831Z,80.00
2019-02-21T01:16:27.409Z,80.80
2019-02-21T01:18:55.974Z,80.80
2019-02-21T01:21:24.560Z,81.70
2019-02-21T01:23:53.115Z,81.70
2019-02-21T01:26:21.703Z,82.00
2019-02-21T01:28:50.325Z,81.40
2019-02-21T01:31:18.837Z,81.80
2019-02-21T01:33:47.386Z,81.50
2019-02-21T01:36:15.982Z,81.80
2019-02-21T01:38:44.464Z,82.10
2019-02-21T01:41:13.025Z,81.50
2019-02-21T01:43:41.610Z,80.70
2019-02-21T01:46:10.106Z,80.60
2019-02-21T01:48:38.701Z,81.50
2019-02-21T01:51:07.255Z,81.40
2019-02-21T01:53:35.848Z,82.10
2019-02-21T01:56:04.430Z,81.50
2019-02-21T01:58:32.954Z,82.50
2019-02-21T02:01:08.642Z,82.30
2019-02-21T02:03:31.807Z,82.60
2019-02-21T02:06:00.297Z,81.80
2019-02-21T02:08:28.807Z,82.70
2019-02-21T02:10:57.282Z,81.90
2019-02-21T02:13:25.794Z,81.80
2019-02-21T02:15:54.359Z,82.40
2019-02-21T02:18:22.947Z,83.20
2019-02-21T02:20:51.599Z,82.90
2019-02-21T02:23:20.186Z,82.30
2019-02-21T02:25:48.662Z,82.70
2019-02-21T02:28:17.253Z,81.50
2019-02-21T02:30:45.807Z,81.80
2019-02-21T02:33:14.467Z,82.90
2019-02-21T02:35:43.028Z,83.00
2019-02-21T02:38:11.615Z,83.50
2019-02-21T02:40:40.176Z,83.00
2019-02-21T02:43:08.760Z,82.40
2019-02-21T02:45:37.316Z,82.50
2019-02-21T02:48:05.903Z,82.60
2019-02-21T02:50:34.382Z,82.00
2019-02-21T02:53:02.971Z,82.50
2019-02-21T02:55:31.465Z,82.00
2019-02-21T02:58:00.013Z,82.60
2019-02-21T03:00:28.600Z,83.30
2019-02-21T03:02:57.153Z,82.70
2019-02-21T03:05:25.734Z,82.90
2019-02-21T03:07:54.387Z,82.80
2019-02-21T03:10:23.019Z,83.90
2019-02-21T03:12:51.503Z,83.20
2019-02-21T03:15:20.148Z,83.10
2019-02-21T03:17:48.707Z,82.80
2019-02-21T03:20:17.305Z,83.40
2019-02-21T03:22:45.848Z,83.80
2019-02-21T03:25:14.482Z,83.90
2019-02-21T03:27:43.066Z,84.40
2019-02-21T03:30:12.850Z,84.60
2019-02-21T03:32:41.682Z,84.20
2019-02-21T03:35:10.406Z,85.40
2019-02-21T03:37:39.005Z,85.80
2019-02-21T03:40:09.491Z,85.40
2019-02-21T03:42:38.047Z,84.20
2019-02-21T03:45:25.903Z,85.40
2019-02-21T03:47:54.460Z,85.50
2019-02-21T03:50:23.047Z,85.20
2019-02-21T03:52:51.598Z,85.60
2019-02-21T03:55:20.190Z,85.60
2019-02-21T03:57:48.755Z,83.90
2019-02-21T04:00:17.337Z,85.50
2019-02-21T04:02:45.833Z,85.60
2019-02-21T04:05:14.399Z,85.30
2019-02-21T04:07:42.955Z,84.60
2019-02-21T04:10:11.708Z,83.60
2019-02-21T04:12:40.283Z,85.50
2019-02-21T04:15:11.444Z,86.40
2019-02-21T04:17:39.994Z,85.00
2019-02-21T04:20:09.720Z,85.30
2019-02-21T04:22:38.277Z,85.90
2019-02-21T04:25:07.405Z,86.20
2019-02-21T04:27:35.955Z,85.10
2019-02-21T04:30:04.988Z,84.10
2019-02-21T04:32:33.616Z,86.20
2019-02-21T04:35:02.201Z,86.00
2019-02-21T04:37:30.678Z,86.70
2019-02-21T04:39:59.189Z,85.80
2019-02-21T04:42:27.742Z,84.80
2019-02-21T04:44:56.347Z,84.90
2019-02-21T04:47:24.896Z,85.30
2019-02-21T04:49:53.473Z,84.40
2019-02-21T04:52:21.951Z,84.30
2019-02-21T04:54:50.618Z,84.00
2019-02-21T04:57:19.154Z,84.30
2019-02-21T04:59:47.668Z,83.80
2019-02-21T05:02:16.146Z,83.90
2019-02-21T05:04:44.659Z,84.70
2019-02-21T05:07:13.279Z,83.80
2019-02-21T05:09:41.862Z,85.00
2019-02-21T05:12:10.348Z,84.70
2019-02-21T05:14:38.929Z,84.30
2019-02-21T05:17:07.491Z,83.70
2019-02-21T05:19:36.072Z,84.20
2019-02-21T05:22:04.561Z,85.50
2019-02-21T05:24:33.152Z,85.80
2019-02-21T05:27:08.807Z,85.10
2019-02-21T05:29:37.388Z,85.50
2019-02-21T05:32:07.623Z,84.60
2019-02-21T05:34:43.779Z,84.30
2019-02-21T05:37:13.897Z,84.20
2019-02-21T05:39:47.005Z,85.30
2019-02-21T05:42:30.047Z,85.00
2019-02-21T05:45:00.491Z,84.40
2019-02-21T05:47:42.780Z,84.30
2019-02-21T05:50:15.517Z,85.40
2019-02-21T05:52:45.640Z,84.50
2019-02-21T05:55:24.960Z,83.90
2019-02-21T05:57:55.160Z,85.10
2019-02-21T06:00:37.654Z,85.70
2019-02-21T06:03:10.691Z,85.00
2019-02-21T06:05:55.885Z,86.10
2019-02-21T06:08:44.131Z,86.60
2019-02-21T06:11:13.910Z,85.50
2019-02-21T06:14:00.570Z,85.70
2019-02-21T06:16:33.518Z,84.60
2019-02-21T06:19:19.895Z,85.60
2019-02-21T06:21:50.929Z,85.80
2019-02-21T06:24:27.312Z,84.00
2019-02-21T06:26:57.553Z,84.10
2019-02-21T06:29:27.759Z,85.10
2019-02-21T06:31:56.315Z,84.20
2019-02-21T06:34:24.905Z,84.00
2019-02-21T06:36:53.467Z,87.30
2019-02-21T06:39:22.128Z,86.30
2019-02-21T06:41:59.104Z,84.70
2019-02-21T06:44:20.930Z,85.10
2019-02-21T06:46:49.469Z,85.10
2019-02-21T06:49:18.001Z,84.50
2019-02-21T06:51:46.559Z,85.30
2019-02-21T06:54:15.116Z,85.20
2019-02-21T06:56:43.705Z,87.50
2019-02-21T06:59:12.271Z,86.80
2019-02-21T07:01:40.877Z,85.80
2019-02-21T07:04:09.437Z,86.50
2019-02-21T07:06:39.297Z,86.00
2019-02-21T07:09:07.983Z,86.10
2019-02-21T07:11:36.688Z,86.10
2019-02-21T07:14:05.248Z,86.90
2019-02-21T07:16:33.760Z,85.70
2019-02-21T07:19:02.314Z,85.40
2019-02-21T07:21:30.907Z,84.50
2019-02-21T07:23:59.505Z,84.80
2019-02-21T07:26:28.057Z,85.00
2019-02-21T07:28:58.309Z,84.90
2019-02-21T07:31:29.064Z,84.20
2019-02-21T07:33:57.060Z,84.10
2019-02-21T07:36:25.637Z,83.20
2019-02-21T07:39:08.369Z,82.90
2019-02-21T07:41:24.364Z,83.80
2019-02-21T07:43:52.925Z,84.10
2019-02-21T07:46:21.519Z,84.40
2019-02-21T07:48:50.078Z,83.80
2019-02-21T07:51:18.709Z,82.60
2019-02-21T07:53:47.265Z,82.70
2019-02-21T07:56:15.854Z,82.80
2019-02-21T07:58:44.414Z,83.20
2019-02-21T08:01:13.113Z,82.30
2019-02-21T08:03:45.948Z,82.50
2019-02-21T08:06:11.909Z,81.80
2019-02-21T08:08:40.469Z,80.70
2019-02-21T08:11:09.507Z,81.40
2019-02-21T08:13:38.072Z,80.90
2019-02-21T08:16:06.730Z,80.40
2019-02-21T08:18:35.345Z,80.30
2019-02-21T08:21:03.934Z,80.40
2019-02-21T08:23:32.635Z,79.70
2019-02-21T08:26:01.252Z,79.00
2019-02-21T08:28:29.807Z,80.10
2019-02-21T08:30:58.413Z,79.10
2019-02-21T08:33:34.631Z,78.80
2019-02-21T08:36:03.212Z,78.70
2019-02-21T08:38:31.772Z,78.30
2019-02-21T08:41:00.383Z,79.10
2019-02-21T08:43:28.999Z,78.80
2019-02-21T08:45:57.738Z,78.50
2019-02-21T08:48:26.511Z,78.30
2019-02-21T08:50:55.103Z,78.80
2019-02-21T08:53:23.659Z,78.20
2019-02-21T08:55:52.248Z,78.70
2019-02-21T08:58:20.807Z,78.50
2019-02-21T09:00:49.412Z,79.00
2019-02-21T09:03:18.233Z,78.50
2019-02-21T09:05:46.857Z,78.00
2019-02-21T09:08:16.732Z,77.30
2019-02-21T09:10:45.511Z,77.30
2019-02-21T09:13:14.144Z,76.00
2019-02-21T09:15:42.811Z,76.00
2019-02-21T09:18:11.477Z,76.40
2019-02-21T09:20:40.143Z,74.70
2019-02-21T09:23:08.711Z,74.70
2019-02-21T09:25:37.303Z,73.40
2019-02-21T09:28:05.865Z,73.60
2019-02-21T09:30:34.465Z,72.80
2019-02-21T09:33:03.029Z,73.20
2019-02-21T09:35:31.789Z,73.90
2019-02-21T09:38:00.351Z,74.40
2019-02-21T09:40:29.016Z,74.80
2019-02-21T09:42:57.571Z,74.70
2019-02-21T09:45:26.497Z,74.20
2019-02-21T09:47:54.991Z,74.00
2019-02-21T09:50:23.587Z,75.40
2019-02-21T09:52:52.155Z,75.00
2019-02-21T09:55:20.785Z,74.80
2019-02-21T09:57:49.443Z,74.50
2019-02-21T10:00:20.443Z,74.00
2019-02-21T10:02:49.101Z,73.80
2019-02-21T10:05:17.738Z,73.30
2019-02-21T10:07:46.331Z,72.10
2019-02-21T10:10:20.717Z,71.30
2019-02-21T10:12:49.299Z,71.60
2019-02-21T10:15:17.857Z,71.10
2019-02-21T10:17:46.463Z,70.40
2019-02-21T10:20:20.355Z,70.50
2019-02-21T10:22:48.942Z,70.40
2019-02-21T10:25:22.918Z,72.20
2019-02-21T10:27:50.822Z,71.80
2019-02-21T10:30:21.334Z,71.80
2019-02-21T10:32:50.062Z,72.70
2019-02-21T10:35:18.685Z,72.40
2019-02-21T10:37:47.213Z,72.10
2019-02-21T10:40:16.630Z,72.30
2019-02-21T10:42:45.249Z,72.80
2019-02-21T10:45:19.095Z,72.50
2019-02-21T10:47:47.665Z,73.50
2019-02-21T10:50:20.245Z,73.50
2019-02-21T10:52:49.285Z,73.70
2019-02-21T10:55:18.478Z,73.90
2019-02-21T10:57:47.138Z,74.20
2019-02-21T11:00:27.003Z,75.50
2019-02-21T11:02:55.673Z,79.20
2019-02-21T11:05:24.353Z,81.30
2019-02-21T11:07:52.981Z,82.70
2019-02-21T11:10:28.883Z,83.60
2019-02-21T11:12:57.547Z,85.90
2019-02-21T11:15:26.546Z,86.30
2019-02-21T11:17:55.312Z,85.80
2019-02-21T11:20:24.129Z,85.70
2019-02-21T11:22:52.782Z,86.50
2019-02-21T11:25:21.310Z,87.20
2019-02-21T11:27:50.873Z,84.90
2019-02-21T11:30:20.693Z,84.30
2019-02-21T11:32:49.541Z,84.40
2019-02-21T11:35:18.252Z,84.90
2019-02-21T11:37:47.596Z,84.60
2019-02-21T11:40:17.730Z,84.70
2019-02-21T11:42:46.562Z,84.40
2019-02-21T11:45:16.563Z,84.80
2019-02-21T11:47:45.161Z,83.50
2019-02-21T11:50:16.057Z,83.40
2019-02-21T11:52:44.647Z,84.30
2019-02-21T11:55:21.582Z,84.90
2019-02-21T11:57:50.247Z,84.40
2019-02-21T12:00:21.514Z,85.00
2019-02-21T12:02:50.174Z,85.60
2019-02-21T12:05:30.216Z,82.70
2019-02-21T12:07:49.113Z,82.70
2019-02-21T12:10:17.687Z,83.10
2019-02-21T12:12:46.265Z,82.60
2019-02-21T12:15:15.977Z,83.50
2019-02-21T12:17:44.636Z,84.20
2019-02-21T12:20:15.401Z,83.10
2019-02-21T12:22:43.925Z,82.50
2019-02-21T12:25:18.176Z,81.20
2019-02-21T12:27:46.757Z,80.30
2019-02-21T12:30:17.367Z,81.20
2019-02-21T12:32:46.227Z,79.00
2019-02-21T12:35:14.926Z,79.00
2019-02-21T12:37:43.651Z,76.40
2019-02-21T12:40:19.778Z,76.50
2019-02-21T12:42:48.395Z,75.50
2019-02-21T12:45:22.383Z,75.60
2019-02-21T12:47:53.710Z,75.60
2019-02-21T12:50:21.182Z,73.80
2019-02-21T12:52:49.773Z,72.50
2019-02-21T12:55:27.294Z,71.90
2019-02-21T12:57:48.565Z,70.40
2019-02-21T13:00:21.550Z,69.50
2019-02-21T13:02:50.212Z,70.10
2019-02-21T13:05:18.778Z,70.70
2019-02-21T13:07:47.373Z,71.20
2019-02-21T13:10:21.013Z,70.60
2019-02-21T13:12:49.609Z,67.60
2019-02-21T13:15:18.240Z,66.30
2019-02-21T13:17:46.832Z,67.40
2019-02-21T13:20:15.746Z,66.40
2019-02-21T13:22:44.600Z,65.50
2019-02-21T13:25:18.009Z,66.90
2019-02-21T13:27:46.583Z,67.70
2019-02-21T13:30:16.736Z,69.70
2019-02-21T13:32:45.606Z,69.60
2019-02-21T13:35:14.722Z,69.60
2019-02-21T13:37:43.441Z,69.30
2019-02-21T13:40:16.889Z,69.60
2019-02-21T13:42:45.549Z,69.00
2019-02-21T13:45:18.154Z,69.40
2019-02-21T13:47:46.813Z,68.90
2019-02-21T13:50:23.666Z,70.30
2019-02-21T13:52:51.794Z,69.70
2019-02-21T13:55:20.297Z,69.60
2019-02-21T13:57:48.971Z,69.60
2019-02-21T14:00:24.322Z,69.60
2019-02-21T14:02:52.927Z,70.50
2019-02-21T14:05:21.477Z,70.60
2019-02-21T14:07:50.062Z,70.10
2019-02-21T14:10:18.727Z,71.10
2019-02-21T14:12:47.326Z,70.60
2019-02-21T14:15:22.051Z,69.70
2019-02-21T14:17:50.652Z,69.80
2019-02-21T14:20:19.215Z,69.60
2019-02-21T14:22:47.805Z,69.10
2019-02-21T14:25:16.385Z,68.90
2019-02-21T14:27:44.979Z,68.80
2019-02-21T14:30:18.494Z,69.80
2019-02-21T14:32:47.084Z,70.30
2019-02-21T14:35:16.256Z,70.60
2019-02-21T14:37:44.990Z,70.60
2019-02-21T14:40:15.148Z,70.90
2019-02-21T14:42:43.798Z,71.50
2019-02-21T14:45:17.755Z,72.00
2019-02-21T14:47:46.419Z,71.50
2019-02-21T14:50:15.049Z,71.80
2019-02-21T14:52:43.740Z,72.00
2019-02-21T14:55:17.338Z,72.60
2019-02-21T14:57:46.027Z,73.40
2019-02-21T15:00:22.750Z,73.30
2019-02-21T15:02:51.349Z,73.00
2019-02-21T15:05:20.252Z,73.50
2019-02-21T15:07:48.899Z,73.60
2019-02-21T15:10:17.810Z,73.80
2019-02-21T15:12:46.437Z,74.00
2019-02-21T15:15:17.674Z,74.30
2019-02-21T15:17:46.269Z,74.60
2019-02-21T15:20:16.269Z,74.80
2019-02-21T15:22:44.859Z,74.80
2019-02-21T15:25:13.501Z,75.10
2019-02-21T15:27:42.221Z,75.50
2019-02-21T15:30:13.638Z,75.20
2019-02-21T15:32:44.797Z,75.30
2019-02-21T15:35:12.442Z,76.00
2019-02-21T15:37:41.022Z,76.50
2019-02-21T15:40:10.151Z,77.00
2019-02-21T15:42:38.813Z,77.30
2019-02-21T15:45:22.239Z,76.00
2019-02-21T15:47:43.596Z,76.10
2019-02-21T15:50:13.901Z,76.30
2019-02-21T15:52:43.626Z,76.30
2019-02-21T15:55:17.055Z,76.40
2019-02-21T15:57:45.710Z,76.70
2019-02-21T16:00:21.982Z,76.80
2019-02-21T16:02:50.775Z,76.50
2019-02-21T16:05:19.312Z,77.10
2019-02-21T16:07:47.899Z,76.80
2019-02-21T16:10:27.110Z,76.80
2019-02-21T16:12:56.561Z,76.20
2019-02-21T16:15:25.512Z,76.70
2019-02-21T16:17:55.911Z,76.80
2019-02-21T16:20:24.543Z,76.50
2019-02-21T16:22:53.057Z,76.80
2019-02-21T16:25:27.313Z,76.70
2019-02-21T16:27:55.929Z,77.20
2019-02-21T16:30:24.534Z,76.90
2019-02-21T16:32:53.128Z,76.80
2019-02-21T16:35:21.683Z,76.60
2019-02-21T16:37:50.275Z,77.20
2019-02-21T16:40:20.560Z,76.70
2019-02-21T16:42:49.226Z,77.10
2019-02-21T16:45:20.871Z,76.70
2019-02-21T16:47:49.467Z,76.50
2019-02-21T16:50:28.753Z,76.50
2019-02-21T16:52:48.335Z,76.50
2019-02-21T16:55:19.206Z,77.50
2019-02-21T16:57:47.806Z,77.20
2019-02-21T17:00:20.840Z,77.20
2019-02-21T17:02:49.577Z,78.30
2019-02-21T17:05:18.062Z,77.40
2019-02-21T17:07:46.554Z,77.20
2019-02-21T17:10:16.958Z,77.40
2019-02-21T17:12:45.678Z,77.50
2019-02-21T17:15:15.912Z,77.20
2019-02-21T17:17:44.474Z,79.50
2019-02-21T17:20:15.298Z,80.50
2019-02-21T17:22:43.926Z,81.90
2019-02-21T17:25:14.461Z,82.50
2019-02-21T17:27:43.551Z,82.90
2019-02-21T17:30:14.558Z,84.70
2019-02-21T17:32:43.138Z,84.50
2019-02-21T17:35:11.889Z,85.70
2019-02-21T17:37:40.447Z,85.40
2019-02-21T17:40:12.252Z,85.70
2019-02-21T17:42:40.819Z,86.50
2019-02-21T17:45:10.448Z,85.50
2019-02-21T17:47:39.005Z,85.50
2019-02-21T17:50:11.014Z,85.90
2019-02-21T17:52:39.687Z,85.00
2019-02-21T17:55:10.113Z,85.50
2019-02-21T17:57:38.602Z,85.10
2019-02-21T18:00:13.133Z,86.40
2019-02-21T18:02:41.682Z,84.10
2019-02-21T18:05:10.939Z,86.40
2019-02-21T18:07:39.536Z,85.30
2019-02-21T18:10:28.992Z,83.80
2019-02-21T18:12:57.568Z,84.60
2019-02-21T18:15:26.505Z,85.20
2019-02-21T18:17:55.192Z,85.40
2019-02-21T18:20:23.858Z,86.00
2019-02-21T18:22:52.672Z,86.30
2019-02-21T18:25:24.424Z,86.00
2019-02-21T18:27:53.024Z,86.40
2019-02-21T18:30:21.631Z,85.80
2019-02-21T18:32:50.267Z,86.90
2019-02-21T18:35:18.934Z,86.40
2019-02-21T18:37:48.011Z,86.70
2019-02-21T18:40:24.428Z,85.90
2019-02-21T18:42:53.004Z,86.90
2019-02-21T18:45:21.736Z,87.00
2019-02-21T18:47:50.321Z,89.20
2019-02-21T18:50:18.910Z,90.10
2019-02-21T18:52:47.707Z,90.00
2019-02-21T18:55:16.220Z,90.00
2019-02-21T18:57:44.836Z,89.90
2019-02-21T19:00:22.331Z,90.20
2019-02-21T19:02:51.004Z,90.40
2019-02-21T19:05:20.313Z,90.30
2019-02-21T19:07:58.840Z,90.00
2019-02-21T19:10:38.588Z,90.30
2019-02-21T19:13:07.889Z,90.40
2019-02-21T19:15:36.756Z,90.40
2019-02-21T19:18:05.484Z,90.50
2019-02-21T19:20:34.230Z,90.60
2019-02-21T19:23:02.833Z,91.20
2019-02-21T19:25:32.029Z,90.80
2019-02-21T19:28:00.632Z,90.90
2019-02-21T19:30:32.197Z,90.70
2019-02-21T19:33:00.934Z,90.90
2019-02-21T19:35:29.515Z,90.90
2019-02-21T19:38:09.520Z,91.00
2019-02-21T19:40:28.556Z,91.10
2019-02-21T19:42:57.298Z,91.20
2019-02-21T19:45:25.936Z,91.30
2019-02-21T19:47:54.620Z,90.80
2019-02-21T19:50:23.326Z,91.20
2019-02-21T19:52:52.111Z,90.90
2019-02-21T19:55:20.748Z,91.00
2019-02-21T19:57:49.424Z,91.10
2019-02-21T20:00:22.571Z,91.00
2019-02-21T20:02:51.162Z,91.00
2019-02-21T20:05:19.808Z,91.10
2019-02-21T20:07:48.412Z,90.90
2019-02-21T20:10:17.052Z,90.90
2019-02-21T20:12:45.635Z,91.30
2019-02-21T20:15:14.566Z,91.80
2019-02-21T20:17:43.227Z,91.90
2019-02-21T20:20:23.816Z,92.10
2019-02-21T20:22:52.434Z,92.50
2019-02-21T20:25:20.992Z,92.50
2019-02-21T20:27:49.837Z,92.70
2019-02-21T20:30:19.640Z,92.50
2019-02-21T20:32:48.380Z,92.70
2019-02-21T20:35:17.016Z,92.40
2019-02-21T20:37:45.613Z,92.40
2019-02-21T20:40:14.505Z,92.30
2019-02-21T20:42:43.001Z,92.00
2019-02-21T20:45:13.130Z,92.40
2019-02-21T20:47:41.790Z,92.60
2019-02-21T20:50:11.933Z,92.70
2019-02-21T20:52:40.822Z,92.30
2019-02-21T20:55:11.191Z,92.60
2019-02-21T20:57:39.866Z,92.50
2019-02-21T21:00:13.848Z,92.80
2019-02-21T21:02:42.498Z,92.70
2019-02-21T21:05:11.489Z,93.00
2019-02-21T21:07:40.128Z,93.70
2019-02-21T21:10:12.346Z,93.60
2019-02-21T21:12:40.970Z,93.70
2019-02-21T21:15:11.406Z,93.60
2019-02-21T21:17:40.116Z,94.20
2019-02-21T21:20:16.646Z,93.90
2019-02-21T21:22:40.983Z,94.20
2019-02-21T21:25:17.760Z,94.30
2019-02-21T21:27:46.336Z,94.10
2019-02-21T21:30:16.211Z,94.20
2019-02-21T21:32:44.912Z,95.40
2019-02-21T21:35:13.704Z,95.30
2019-02-21T21:37:42.270Z,95.10
2019-02-21T21:40:13.592Z,95.10
2019-02-21T21:42:42.238Z,94.80
2019-02-21T21:45:13.474Z,94.80
2019-02-21T21:47:42.180Z,94.70
2019-02-21T21:50:13.327Z,95.30
2019-02-21T21:52:41.890Z,95.10
2019-02-21T21:55:10.652Z,95.50
2019-02-21T21:57:39.288Z,95.50
2019-02-21T22:00:19.853Z,95.70
2019-02-21T22:02:48.485Z,95.70
2019-02-21T22:05:17.242Z,95.50
2019-02-21T22:07:45.825Z,96.30
2019-02-21T22:10:15.559Z,95.80
2019-02-21T22:12:44.140Z,96.10
2019-02-21T22:15:36.950Z,96.10
2019-02-21T22:18:07.718Z,96.50
2019-02-21T22:20:36.062Z,96.70
2019-02-21T22:23:04.660Z,96.40
2019-02-21T22:25:33.264Z,97.00
2019-02-21T22:28:01.826Z,97.50
2019-02-21T22:30:30.394Z,97.20
2019-02-21T22:32:58.990Z,97.20
2019-02-21T22:35:27.569Z,97.70
2019-02-21T22:37:56.175Z,97.80
2019-02-21T22:40:24.746Z,98.20
2019-02-21T22:42:53.355Z,98.20
2019-02-21T22:45:22.016Z,97.90
2019-02-21T22:47:50.738Z,98.30
2019-02-21T22:50:20.930Z,98.20
2019-02-21T22:52:49.598Z,98.40
2019-02-21T22:55:37.983Z,98.50
2019-02-21T22:58:06.648Z,98.40
2019-02-21T23:00:54.482Z,98.20
2019-02-21T23:03:25.771Z,98.40
2019-02-21T23:06:14.082Z,98.10
2019-02-21T23:08:45.052Z,98.30
2019-02-21T23:11:14.058Z,98.10
2019-02-21T23:13:42.656Z,98.80
2019-02-21T23:16:11.310Z,98.60
2019-02-21T23:18:39.924Z,98.70
2019-02-21T23:21:08.480Z,99.00
2019-02-21T23:23:37.145Z,99.00
2019-02-21T23:26:05.712Z,99.10
2019-02-21T23:28:34.298Z,99.00
2019-02-21T23:31:02.852Z,98.90
2019-02-21T23:33:33.103Z,98.80
2019-02-21T23:36:01.662Z,99.00
2019-02-21T23:38:30.400Z,99.20
2019-02-21T23:40:58.964Z,99.20
2019-02-21T23:43:27.588Z,99.00
2019-02-21T23:45:56.164Z,99.30
2019-02-21T23:48:24.758Z,99.40
2019-02-21T23:50:53.328Z,99.60
2019-02-21T23:53:21.927Z,99.50
2019-02-21T23:55:50.494Z,99.60
2019-02-21T23:58:19.100Z,99.80
